JNA714 VHHH-RKPC
Flight info
| Callsign | JNA714 |
|---|---|
| Flight time | N/A |
| Altitude | 35000 |
| Route | DALOL V631 ENVAR M750 ANLOT B1 APU DCT DRAKE Q11 WP900 L4 LIPLO Y741 ATOTI Y722 SOSDO SOSDO2M |
| Aircraft | B738/M-SDE2E3FGHIRWXY/LB1 |
Departure
| Time | N/A |
|---|---|
| Airport | Hong Kong International Airport (VHHH) |
Arrival
| Time | 2026-05-06 18:09 |
|---|---|
| Airport | Jeju International Airport (RKPC) |
| Time | Latitude | Longitude | Altitude | Speed | Heading |
|---|---|---|---|---|---|
| 2026-05-06 17:52 | 33.21339 | 126.72461 | 11127 ft | 305 kts | 45° |
| 2026-05-06 17:52 | 33.22795 | 126.74299 | 10940 ft | 305 kts | 45° |
| 2026-05-06 17:53 | 33.24250 | 126.76138 | 10752 ft | 304 kts | 45° |
| 2026-05-06 17:53 | 33.25702 | 126.77974 | 10556 ft | 304 kts | 45° |
| 2026-05-06 17:53 | 33.27161 | 126.79819 | 10352 ft | 310 kts | 45° |
| 2026-05-06 17:53 | 33.28664 | 126.81721 | 10141 ft | 319 kts | 45° |
| 2026-05-06 17:54 | 33.30189 | 126.83651 | 9904 ft | 319 kts | 45° |
| 2026-05-06 17:54 | 33.31695 | 126.85561 | 9633 ft | 312 kts | 46° |
| 2026-05-06 17:54 | 33.33155 | 126.87413 | 9353 ft | 300 kts | 46° |
| 2026-05-06 17:54 | 33.34567 | 126.89204 | 9096 ft | 294 kts | 46° |
| 2026-05-06 17:55 | 33.35960 | 126.90973 | 8843 ft | 290 kts | 46° |
| 2026-05-06 17:55 | 33.37338 | 126.92722 | 8602 ft | 287 kts | 46° |
| 2026-05-06 17:55 | 33.38701 | 126.94453 | 8347 ft | 284 kts | 46° |
| 2026-05-06 17:55 | 33.40051 | 126.96170 | 8100 ft | 282 kts | 46° |
| 2026-05-06 17:56 | 33.41393 | 126.97876 | 7852 ft | 281 kts | 46° |
| 2026-05-06 17:56 | 33.42731 | 126.99578 | 7622 ft | 281 kts | 46° |
| 2026-05-06 17:56 | 33.44067 | 127.01278 | 7376 ft | 280 kts | 46° |
| 2026-05-06 17:56 | 33.45402 | 127.02978 | 7139 ft | 280 kts | 46° |
| 2026-05-06 17:57 | 33.46732 | 127.04672 | 6907 ft | 279 kts | 46° |
| 2026-05-06 17:57 | 33.48056 | 127.06360 | 6671 ft | 277 kts | 46° |
| 2026-05-06 17:57 | 33.49378 | 127.08037 | 6429 ft | 276 kts | 44° |
| 2026-05-06 17:57 | 33.50966 | 127.09267 | 6146 ft | 272 kts | 15° |
| 2026-05-06 17:58 | 33.52815 | 127.09420 | 5906 ft | 265 kts | 347° |
| 2026-05-06 17:58 | 33.54472 | 127.08579 | 5657 ft | 258 kts | 321° |
| 2026-05-06 17:58 | 33.55685 | 127.07046 | 5416 ft | 252 kts | 300° |
| 2026-05-06 17:58 | 33.56396 | 127.05150 | 5185 ft | 248 kts | 289° |
| 2026-05-06 17:59 | 33.56974 | 127.03210 | 4937 ft | 247 kts | 288° |
| 2026-05-06 17:59 | 33.57536 | 127.01274 | 4683 ft | 245 kts | 287° |
| 2026-05-06 17:59 | 33.58095 | 126.99349 | 4429 ft | 244 kts | 287° |
| 2026-05-06 17:59 | 33.58654 | 126.97437 | 4179 ft | 242 kts | 287° |
| 2026-05-06 18:00 | 33.59213 | 126.95533 | 4038 ft | 242 kts | 287° |
| 2026-05-06 18:00 | 33.59770 | 126.93644 | 3997 ft | 235 kts | 287° |
| 2026-05-06 18:00 | 33.60123 | 126.92452 | 3998 ft | 223 kts | 287° |
| 2026-05-06 18:00 | 33.60625 | 126.90759 | 3968 ft | 207 kts | 287° |
| 2026-05-06 18:01 | 33.61086 | 126.89202 | 3966 ft | 190 kts | 287° |
| 2026-05-06 18:01 | 33.61515 | 126.87752 | 3978 ft | 183 kts | 287° |
| 2026-05-06 18:01 | 33.61938 | 126.86319 | 3976 ft | 182 kts | 287° |
| 2026-05-06 18:01 | 33.62359 | 126.84892 | 3984 ft | 183 kts | 287° |
| 2026-05-06 18:02 | 33.62784 | 126.83455 | 3981 ft | 183 kts | 287° |
| 2026-05-06 18:02 | 33.63209 | 126.82018 | 3985 ft | 183 kts | 287° |
| 2026-05-06 18:02 | 33.63634 | 126.80578 | 3977 ft | 183 kts | 287° |
| 2026-05-06 18:02 | 33.64057 | 126.79145 | 3982 ft | 182 kts | 287° |
| 2026-05-06 18:03 | 33.64480 | 126.77713 | 3983 ft | 182 kts | 287° |
| 2026-05-06 18:03 | 33.64780 | 126.76254 | 3959 ft | 179 kts | 263° |
| 2026-05-06 18:03 | 33.64352 | 126.74935 | 3993 ft | 174 kts | 240° |
| 2026-05-06 18:03 | 33.63759 | 126.73615 | 3737 ft | 188 kts | 239° |
| 2026-05-06 18:04 | 33.63092 | 126.72288 | 3517 ft | 184 kts | 237° |
| 2026-05-06 18:04 | 33.62430 | 126.71008 | 3322 ft | 177 kts | 237° |
| 2026-05-06 18:04 | 33.61794 | 126.69778 | 3146 ft | 171 kts | 236° |
| 2026-05-06 18:04 | 33.61171 | 126.68571 | 2999 ft | 171 kts | 236° |
| 2026-05-06 18:05 | 33.60541 | 126.67350 | 2854 ft | 174 kts | 236° |
| 2026-05-06 18:05 | 33.59902 | 126.66111 | 2706 ft | 175 kts | 236° |
| 2026-05-06 18:05 | 33.59267 | 126.64878 | 2538 ft | 171 kts | 236° |
| 2026-05-06 18:05 | 33.58645 | 126.63671 | 2384 ft | 169 kts | 236° |
| 2026-05-06 18:06 | 33.58025 | 126.62467 | 2240 ft | 170 kts | 236° |
| 2026-05-06 18:06 | 33.57400 | 126.61255 | 2097 ft | 171 kts | 237° |
| 2026-05-06 18:06 | 33.56773 | 126.60038 | 1943 ft | 173 kts | 237° |
| 2026-05-06 18:06 | 33.56141 | 126.58809 | 1808 ft | 173 kts | 237° |
| 2026-05-06 18:07 | 33.55510 | 126.57586 | 1631 ft | 167 kts | 237° |
| 2026-05-06 18:07 | 33.54924 | 126.56446 | 1413 ft | 151 kts | 237° |
| 2026-05-06 18:07 | 33.54386 | 126.55399 | 1185 ft | 146 kts | 237° |
| 2026-05-06 18:07 | 33.53865 | 126.54388 | 1002 ft | 142 kts | 237° |
| 2026-05-06 18:08 | 33.53348 | 126.53383 | 810 ft | 141 kts | 237° |
| 2026-05-06 18:08 | 33.52838 | 126.52391 | 640 ft | 139 kts | 237° |
| 2026-05-06 18:08 | 33.52327 | 126.51398 | 430 ft | 140 kts | 238° |
| 2026-05-06 18:08 | 33.51819 | 126.50409 | 268 ft | 139 kts | 238° |
| 2026-05-06 18:09 | 33.51310 | 126.49416 | 103 ft | 139 kts | 238° |
| 2026-05-06 18:09 | 33.50816 | 126.48453 | 93 ft | 113 kts | 238° |
| 2026-05-06 18:09 | 33.50664 | 126.48156 | 92 ft | 0 kts | 238° |
| 2026-05-06 18:10 | 33.50640 | 126.48112 | 92 ft | 15 kts | 237° |
| 2026-05-06 18:10 | 33.50530 | 126.47987 | 95 ft | 25 kts | 215° |
| 2026-05-06 18:10 | 33.50409 | 126.47921 | 93 ft | 15 kts | 179° |
| 2026-05-06 18:10 | 33.50397 | 126.48016 | 93 ft | 14 kts | 57° |
| 2026-05-06 18:11 | 33.50448 | 126.48114 | 93 ft | 14 kts | 58° |
| 2026-05-06 18:11 | 33.50495 | 126.48206 | 92 ft | 13 kts | 58° |
| 2026-05-06 18:11 | 33.50542 | 126.48299 | 91 ft | 13 kts | 58° |
| 2026-05-06 18:11 | 33.50588 | 126.48386 | 91 ft | 12 kts | 58° |
| 2026-05-06 18:12 | 33.50632 | 126.48473 | 90 ft | 12 kts | 58° |
| 2026-05-06 18:12 | 33.50675 | 126.48557 | 90 ft | 12 kts | 58° |
| 2026-05-06 18:12 | 33.50717 | 126.48639 | 90 ft | 11 kts | 58° |
| 2026-05-06 18:12 | 33.50758 | 126.48718 | 88 ft | 11 kts | 58° |
| 2026-05-06 18:13 | 33.50798 | 126.48796 | 88 ft | 11 kts | 58° |
| 2026-05-06 18:13 | 33.50837 | 126.48871 | 91 ft | 10 kts | 58° |
| 2026-05-06 18:13 | 33.50876 | 126.48947 | 88 ft | 11 kts | 58° |
| 2026-05-06 18:13 | 33.50917 | 126.49028 | 88 ft | 11 kts | 59° |
| 2026-05-06 18:14 | 33.50958 | 126.49108 | 89 ft | 11 kts | 58° |
| 2026-05-06 18:14 | 33.50998 | 126.49186 | 90 ft | 11 kts | 58° |
| 2026-05-06 18:14 | 33.51037 | 126.49261 | 88 ft | 10 kts | 58° |
| 2026-05-06 18:14 | 33.51037 | 126.49336 | 89 ft | 8 kts | 133° |
| 2026-05-06 18:15 | 33.50993 | 126.49371 | 94 ft | 7 kts | 148° |
| 2026-05-06 18:15 | 33.50952 | 126.49404 | 91 ft | 7 kts | 134° |
| 2026-05-06 18:15 | 33.50939 | 126.49460 | 92 ft | 7 kts | 114° |
| 2026-05-06 18:15 | 33.50896 | 126.49482 | 94 ft | 7 kts | 175° |
| 2026-05-06 18:16 | 33.50849 | 126.49485 | 95 ft | 7 kts | 177° |
| 2026-05-06 18:16 | 33.50826 | 126.49486 | 94 ft | 2 kts | 177° |
| 2026-05-06 18:16 | 33.50824 | 126.49487 | 94 ft | 0 kts | 177° |
| 2026-05-06 18:16 | 33.50819 | 126.49487 | 96 ft | 1 kts | 177° |